Weather observations for the past three days for
Grantley Adams International Airport
Imperial (Metric)
Date Time (ast) Wind (mph) Vis. (mi.) Weather Sky Cond. Temperature (ºF) Relative Humidity Wind Chill (°F) Heat Index (°F) Pressure Precipitation (in)
Air Dwpt 6 hour altimeter (in) sea level (mb) 1 hr 3 hr 6 hr
Max. Min.
06 12:00 E 16 0.00 A Few Clouds FEW020 86 73.4 66% 93 0 0.0
06 10:00 E 15 0.00 Partly Cloudy SCT018 84.2 75.2 74% 92 0 0.0
06 09:00 E 15 0.00 Partly Cloudy SCT018 84.2 75.2 74% 92 0 0.0
06 08:00 E 16 0.00 Partly Cloudy SCT018 82.4 75.2 79% 89 0 0.0
06 07:00 E 12 0.00 Showers in Vicinity BKN016 SCT036 80.6 75.2 84% 86 0 0.0
06 06:00 E 10 0.00 Showers in Vicinity BKN016 SCT036 78.8 75.2 89% 82 0 0.0
06 05:00 SE 14 0.00 Showers in Vicinity BKN018 SCT036 78.8 75.2 89% 82 0 0.0
06 04:00 SE 10 0.00 Showers in Vicinity SCT018 BKN036 78.8 75.2 89% 82 0 0.0
06 03:00 E 13 0.00 Mostly Cloudy BKN018 78.8 73.4 84% 82 0 0.0
06 02:00 E 14 0.00 A Few Clouds FEW018 78.8 73.4 84% 82 0 0.0
06 01:00 E 14 0.00 Partly Cloudy SCT018 80.6 75.2 84% 86 0 0.0
06 00:00 E 13 0.00 A Few Clouds FEW018 78.8 73.4 84% 82 0 0.0
05 23:00 E 10 0.00 Showers in Vicinity SCT020 SCT036 80.6 75.2 84% 86 0 0.0
05 22:00 E 13 0.00 Mostly Cloudy BKN020 80.6 73.4 79% 85 0 0.0
05 21:00 E 14 0.00 Mostly Cloudy BKN018 80.6 73.4 79% 85 0 0.0
05 20:00 E 15 0.00 Partly Cloudy SCT020 80.6 73.4 79% 85 0 0.0
05 19:00 E 14 0.00 Partly Cloudy SCT018 80.6 73.4 79% 85 0 0.0
05 18:00 E 15 0.00 A Few Clouds FEW018 80.6 73.4 79% 85 0 0.0
05 17:00 E 16 0.00 Partly Cloudy SCT018 82.4 73.4 74% 88 0 0.0
05 16:00 E 16 0.00 A Few Clouds FEW020 84.2 73.4 70% 91 0 0.0
05 14:00 E 16 0.00 A Few Clouds FEW020 87.8 73.4 62% 96 0 0.0
05 13:00 SE 15 0.00 Partly Cloudy SCT018 86 75.2 70% 95 0 0.0
05 12:00 E 16 0.00 Partly Cloudy SCT018 84.2 75.2 74% 92 0 0.0
05 11:00 E 16 0.00 Partly Cloudy SCT018 86 75.2 70% 95 0 0.0
05 10:00 E 16 0.00 A Few Clouds FEW018 84.2 75.2 74% 92 0 0.0
05 08:00 E 20 0.00 A Few Clouds FEW018 82.4 73.4 74% 88 0 0.0
05 07:00 E 15 0.00 A Few Clouds FEW016 80.6 75.2 84% 86 0 0.0
05 06:00 E 14 0.00 A Few Clouds FEW016 78.8 73.4 84% 82 0 0.0
05 05:00 E 14 0.00 Partly Cloudy FEW016 SCT038 78.8 73.4 84% 82 0 0.0
05 04:00 E 14 0.00 A Few Clouds FEW018 78.8 73.4 84% 82 0 0.0
05 03:00 E 12 0.00 Light Showers Rain SCT018 78.8 73.4 84% 82 0 0.0
05 01:00 E 13 0.00 Partly Cloudy SCT018 78.8 73.4 84% 82 0 0.0
05 00:00 E 9 0.00 A Few Clouds FEW018 78.8 73.4 84% 82 0 0.0
04 23:00 E 13 0.00 Partly Cloudy SCT018 78.8 73.4 84% 82 0 0.0
04 22:00 E 12 0.00 Partly Cloudy SCT020 78.8 73.4 84% 82 0 0.0
04 21:00 E 12 0.00 A Few Clouds FEW020 78.8 71.6 79% 82 0 0.0
04 20:00 E 10 0.00 A Few Clouds FEW020 78.8 71.6 79% 82 0 0.0
04 19:00 E 9 0.00 A Few Clouds FEW020 78.8 71.6 79% 82 0 0.0
04 18:00 E 10 0.00 Partly Cloudy SCT018 80.6 71.6 74% 85 0 0.0
04 17:00 E 13 0.00 Showers in Vicinity SCT018 82.4 73.4 74% 88 0 0.0
04 16:00 SE 13 0.00 A Few Clouds FEW018 84.2 73.4 70% 91 0 0.0
04 15:00 SE 14 0.00 Partly Cloudy SCT018 84.2 73.4 70% 91 0 0.0
04 14:00 E 15 0.00 Partly Cloudy SCT018 84.2 73.4 70% 91 0 0.0
04 13:00 SE 15 0.00 Partly Cloudy SCT020 86 73.4 66% 93 0 0.0
04 12:00 E 15 0.00 A Few Clouds FEW020 86 73.4 66% 93 0 0.0
04 11:00 E 16 0.00 A Few Clouds FEW020 86 73.4 66% 93 0 0.0
04 10:00 SE 15 0.00 Mostly Cloudy SCT020 BKN038 84.2 73.4 70% 91 0 0.0
04 09:00 E 15 0.00 Partly Cloudy SCT020 SCT038 84.2 73.4 70% 91 0 0.0
04 08:00 E 15 0.00 Partly Cloudy SCT020 82.4 71.6 70% 87 0 0.0
04 07:00 E 14 0.00 A Few Clouds FEW020 80.6 71.6 74% 85 0 0.0
04 06:00 E 13 0.00 Partly Cloudy SCT016 78.8 71.6 79% 82 0 0.0
04 05:00 E 12 0.00 Partly Cloudy SCT018 SCT032 78.8 71.6 79% 82 0 0.0
04 04:00 E 12 0.00 Mostly Cloudy BKN016 78.8 71.6 79% 82 0 0.0
04 03:00 E 12 0.00 A Few Clouds FEW018 78.8 71.6 79% 82 0 0.0
04 02:00 E 12 0.00 Showers in Vicinity FEW016 78.8 71.6 79% 82 0 0.0
04 01:00 E 13 0.00 A Few Clouds FEW018 78.8 71.6 79% 82 0 0.0
04 00:00 E 12 0.00 Partly Cloudy SCT018 78.8 71.6 79% 82 0 0.0
03 23:00 E 12 0.00 Partly Cloudy SCT018 78.8 71.6 79% 82 0 0.0
03 22:00 E 10 0.00 A Few Clouds FEW018 78.8 71.6 79% 82 0 0.0
03 21:00 E 12 0.00 Showers in Vicinity SCT016 78.8 71.6 79% 82 0 0.0
03 20:00 E 10 0.00 Showers in Vicinity SCT016 78.8 71.6 79% 82 0 0.0
03 19:00 E 10 0.00 A Few Clouds FEW016 78.8 71.6 79% 82 0 0.0
03 18:00 E 10 0.00 A Few Clouds FEW018 80.6 73.4 79% 85 0 0.0
03 17:00 E 14 0.00 A Few Clouds FEW020 82.4 73.4 74% 88 0 0.0
03 16:00 E 14 0.00 Partly Cloudy SCT020 84.2 73.4 70% 91 0 0.0
03 15:00 E 16 0.00 A Few Clouds FEW022 84.2 73.4 70% 91 0 0.0
03 14:00 E 17 0.00 Partly Cloudy SCT020 86 73.4 66% 93 0 0.0
03 13:00 E 15 0.00 A Few Clouds FEW022 86 73.4 66% 93 0 0.0
Date Time (ast) Wind (mph) Vis. (mi.) Weather Sky Cond. Air Dwpt Max. Min. Relative Humidity Wind Chill (°F) Heat Index (°F) altimeter (in) sea level (mb) 1 hr 3 hr 6 hr
6 hour
Temperature (ºF) Pressure Precipitation (in)